createdAt,value
2018-08-14T00:00:13.595Z,11.00
2018-08-14T00:02:42.246Z,13.20
2018-08-14T00:05:11.027Z,14.50
2018-08-14T00:07:40.066Z,11.50
2018-08-14T00:10:10.335Z,17.17
2018-08-14T00:12:39.012Z,16.10
2018-08-14T00:15:10.123Z,16.00
2018-08-14T00:17:39.040Z,17.73
2018-08-14T00:20:09.634Z,21.77
2018-08-14T00:22:38.611Z,18.53
2018-08-14T00:25:08.070Z,20.93
2018-08-14T00:27:37.675Z,18.30
2018-08-14T00:30:08.265Z,18.83
2018-08-14T00:32:36.934Z,19.50
2018-08-14T00:35:05.673Z,19.20
2018-08-14T00:37:34.202Z,19.17
2018-08-14T00:40:02.769Z,20.90
2018-08-14T00:42:31.745Z,19.07
2018-08-14T00:45:00.443Z,21.83
2018-08-14T00:47:29.063Z,21.87
2018-08-14T00:49:57.660Z,21.93
2018-08-14T00:52:26.232Z,20.23
2018-08-14T00:54:54.867Z,21.90
2018-08-14T00:57:23.489Z,23.67
2018-08-14T00:59:52.293Z,22.87
2018-08-14T01:02:20.822Z,24.30
2018-08-14T01:04:49.466Z,27.20
2018-08-14T01:07:18.015Z,25.13
2018-08-14T01:09:46.866Z,25.97
2018-08-14T01:12:15.456Z,28.10
2018-08-14T01:14:44.102Z,28.23
2018-08-14T01:17:12.645Z,28.70
2018-08-14T01:19:41.201Z,28.60
2018-08-14T01:22:09.713Z,29.67
2018-08-14T01:24:38.660Z,28.10
2018-08-14T01:27:07.264Z,30.23
2018-08-14T01:29:35.874Z,29.80
2018-08-14T01:32:04.444Z,31.23
2018-08-14T01:34:32.956Z,28.00
2018-08-14T01:37:01.528Z,30.37
2018-08-14T01:39:30.154Z,30.20
2018-08-14T01:41:58.771Z,28.83
2018-08-14T01:44:27.360Z,32.73
2018-08-14T01:46:56.205Z,32.03
2018-08-14T01:49:24.903Z,31.03
2018-08-14T01:51:53.964Z,29.43
2018-08-14T01:54:22.560Z,31.07
2018-08-14T01:56:51.440Z,28.60
2018-08-14T01:59:20.189Z,28.13
2018-08-14T02:01:49.367Z,28.67
2018-08-14T02:04:18.245Z,28.17
2018-08-14T02:06:46.936Z,29.57
2018-08-14T02:09:15.460Z,27.23
2018-08-14T02:11:44.168Z,28.27
2018-08-14T02:14:12.742Z,26.17
2018-08-14T02:16:41.246Z,26.93
2018-08-14T02:19:09.822Z,27.73
2018-08-14T02:21:38.523Z,27.10
2018-08-14T02:24:07.339Z,26.33
2018-08-14T02:26:35.874Z,28.00
2018-08-14T02:29:04.453Z,28.03
2018-08-14T02:31:33.397Z,28.07
2018-08-14T02:34:01.948Z,28.33
2018-08-14T02:36:30.803Z,28.30
2018-08-14T02:38:59.363Z,28.37
2018-08-14T02:41:28.036Z,25.93
2018-08-14T02:43:56.564Z,26.63
2018-08-14T02:46:25.110Z,31.67
2018-08-14T02:48:53.990Z,29.77
2018-08-14T02:51:22.509Z,26.40
2018-08-14T02:53:51.092Z,26.57
2018-08-14T02:56:19.688Z,28.13
2018-08-14T02:58:48.309Z,29.63
2018-08-14T03:01:17.087Z,26.63
2018-08-14T03:03:45.790Z,27.40
2018-08-14T03:06:14.610Z,28.53
2018-08-14T03:08:43.223Z,29.80
2018-08-14T03:11:11.930Z,25.93
2018-08-14T03:13:40.771Z,26.07
2018-08-14T03:16:09.382Z,27.57
2018-08-14T03:18:38.230Z,27.13
2018-08-14T03:21:07.179Z,26.37
2018-08-14T03:23:36.223Z,28.23
2018-08-14T03:26:04.891Z,27.93
2018-08-14T03:28:33.471Z,23.83
2018-08-14T03:31:02.179Z,24.80
2018-08-14T03:33:30.933Z,25.10
2018-08-14T03:35:59.554Z,24.90
2018-08-14T03:38:28.394Z,25.47
2018-08-14T03:40:56.925Z,22.63
2018-08-14T03:43:25.453Z,24.97
2018-08-14T03:45:54.070Z,24.23
2018-08-14T03:48:22.631Z,26.87
2018-08-14T03:50:51.281Z,27.77
2018-08-14T03:53:19.797Z,23.57
2018-08-14T03:55:48.459Z,24.37
2018-08-14T03:58:17.105Z,28.87
2018-08-14T04:00:45.739Z,26.57
2018-08-14T04:03:14.410Z,25.93
2018-08-14T04:05:43.152Z,31.67
2018-08-14T04:08:11.759Z,28.50
2018-08-14T04:10:40.377Z,27.33
2018-08-14T04:13:08.963Z,28.00
2018-08-14T04:15:37.846Z,31.90
2018-08-14T04:18:08.797Z,29.10
2018-08-14T04:20:37.750Z,30.20
2018-08-14T04:23:06.385Z,30.37
2018-08-14T04:25:35.058Z,28.57
2018-08-14T04:28:03.612Z,34.70
2018-08-14T04:30:32.148Z,32.37
2018-08-14T04:33:00.903Z,31.60
2018-08-14T04:35:29.443Z,35.43
2018-08-14T04:37:58.153Z,30.20
2018-08-14T04:40:26.735Z,34.20
2018-08-14T04:42:55.445Z,30.53
2018-08-14T04:45:24.020Z,34.83
2018-08-14T04:47:52.536Z,33.93
2018-08-14T04:50:21.070Z,33.10
2018-08-14T04:52:49.630Z,34.53
2018-08-14T04:55:18.140Z,33.17
2018-08-14T04:57:46.698Z,33.33
2018-08-14T05:00:16.302Z,31.47
2018-08-14T05:02:45.903Z,32.00
2018-08-14T05:05:15.283Z,33.77
2018-08-14T05:07:44.152Z,33.57
2018-08-14T05:10:14.648Z,33.67
2018-08-14T05:12:43.212Z,30.90
2018-08-14T05:15:11.776Z,34.43
2018-08-14T05:17:40.882Z,32.17
2018-08-14T05:20:11.341Z,33.73
2018-08-14T05:22:40.172Z,30.77
2018-08-14T05:25:09.305Z,31.73
2018-08-14T05:27:38.417Z,30.77
2018-08-14T05:30:10.163Z,30.23
2018-08-14T05:32:38.751Z,31.63
2018-08-14T05:35:08.558Z,31.63
2018-08-14T05:37:37.117Z,31.93
2018-08-14T05:40:06.471Z,29.20
2018-08-14T05:42:35.105Z,30.17
2018-08-14T05:45:03.969Z,37.57
2018-08-14T05:47:32.514Z,32.27
2018-08-14T05:50:01.074Z,29.93
2018-08-14T05:52:29.649Z,31.90
2018-08-14T05:54:58.334Z,31.73
2018-08-14T05:57:26.971Z,31.23
2018-08-14T05:59:55.855Z,32.90
2018-08-14T06:02:24.505Z,29.23
2018-08-14T06:04:53.081Z,32.90
2018-08-14T06:07:22.040Z,31.23
2018-08-14T06:09:50.639Z,29.93
2018-08-14T06:12:19.195Z,30.77
2018-08-14T06:14:48.205Z,26.23
2018-08-14T06:17:16.757Z,26.17
2018-08-14T06:19:45.654Z,28.77
2018-08-14T06:22:14.266Z,28.33
2018-08-14T06:24:43.103Z,25.40
2018-08-14T06:27:12.062Z,24.50
2018-08-14T06:29:40.586Z,26.90
2018-08-14T06:32:09.226Z,27.83
2018-08-14T06:34:38.035Z,27.70
2018-08-14T06:37:06.629Z,26.83
2018-08-14T06:39:35.419Z,27.23
2018-08-14T06:42:03.967Z,29.00
2018-08-14T06:44:32.521Z,26.93
2018-08-14T06:47:01.125Z,26.00
2018-08-14T06:49:29.675Z,25.83
2018-08-14T06:51:58.581Z,23.37
2018-08-14T06:54:27.177Z,23.73
2018-08-14T06:56:55.799Z,22.90
2018-08-14T06:59:24.362Z,19.07
2018-08-14T07:01:52.943Z,19.57
2018-08-14T07:04:21.936Z,20.53
2018-08-14T07:06:50.499Z,20.73
2018-08-14T07:09:19.167Z,21.83
2018-08-14T07:11:48.099Z,20.03
2018-08-14T07:14:16.703Z,19.30
2018-08-14T07:16:45.235Z,19.20
2018-08-14T07:19:13.816Z,20.03
2018-08-14T07:21:42.415Z,19.43
2018-08-14T07:24:11.151Z,19.27
2018-08-14T07:26:39.798Z,19.80
2018-08-14T07:29:08.655Z,21.73
2018-08-14T07:31:37.415Z,24.37
2018-08-14T07:34:06.992Z,24.37
2018-08-14T07:36:35.704Z,25.10
2018-08-14T07:39:06.491Z,26.37
2018-08-14T07:41:35.398Z,23.80
2018-08-14T07:44:04.164Z,25.90
2018-08-14T07:46:32.757Z,24.70
2018-08-14T07:49:01.899Z,21.40
2018-08-14T07:51:30.692Z,27.53
2018-08-14T07:53:59.314Z,22.60
2018-08-14T07:56:27.947Z,22.07
2018-08-14T07:58:56.925Z,24.77
2018-08-14T08:01:25.788Z,23.37
2018-08-14T08:03:54.411Z,22.77
2018-08-14T08:06:23.451Z,25.30
2018-08-14T08:08:52.372Z,21.60
2018-08-14T08:11:20.886Z,19.70
2018-08-14T08:13:49.660Z,19.17
2018-08-14T08:16:18.405Z,20.47
2018-08-14T08:18:47.010Z,16.80
2018-08-14T08:21:15.531Z,16.90
2018-08-14T08:23:44.181Z,19.17
2018-08-14T08:26:13.095Z,18.63
2018-08-14T08:28:41.684Z,16.57
2018-08-14T08:31:10.377Z,16.13
2018-08-14T08:33:39.136Z,14.20
2018-08-14T08:36:07.956Z,12.93
2018-08-14T08:38:36.507Z,13.60
2018-08-14T08:41:05.064Z,13.80
2018-08-14T08:43:33.689Z,13.17
2018-08-14T08:46:02.548Z,13.93
2018-08-14T08:48:31.123Z,15.80
2018-08-14T08:50:59.825Z,15.77
2018-08-14T08:53:28.813Z,15.90
2018-08-14T08:55:58.207Z,17.73
2018-08-14T08:58:26.787Z,18.77
2018-08-14T09:00:55.476Z,20.67
2018-08-14T09:03:24.264Z,17.17
2018-08-14T09:05:53.083Z,17.37
2018-08-14T09:08:22.004Z,22.97
2018-08-14T09:10:50.651Z,21.13
2018-08-14T09:13:19.797Z,19.53
2018-08-14T09:15:48.527Z,22.63
2018-08-14T09:18:17.257Z,21.83
2018-08-14T09:20:45.829Z,20.40
2018-08-14T09:23:14.467Z,22.70
2018-08-14T09:25:43.310Z,25.77
2018-08-14T09:28:12.427Z,23.80
2018-08-14T09:30:41.025Z,26.67
2018-08-14T09:33:09.668Z,25.60
2018-08-14T09:35:38.307Z,27.87
2018-08-14T09:38:07.295Z,24.30
2018-08-14T09:40:51.052Z,30.50
2018-08-14T09:43:19.836Z,32.30
2018-08-14T09:45:50.295Z,27.70
2018-08-14T09:48:19.630Z,25.07
2018-08-14T09:50:48.742Z,29.97
2018-08-14T09:53:17.271Z,29.20
2018-08-14T09:55:46.056Z,25.53
2018-08-14T09:58:15.395Z,22.03
2018-08-14T10:00:49.479Z,23.37
2018-08-14T10:03:23.369Z,24.53
2018-08-14T10:05:57.103Z,23.07
2018-08-14T10:08:25.775Z,23.10
2018-08-14T10:10:54.438Z,25.80
2018-08-14T10:13:23.132Z,22.67
2018-08-14T10:15:51.812Z,22.27
2018-08-14T10:18:23.493Z,20.30
2018-08-14T10:20:52.685Z,18.00
2018-08-14T10:23:21.365Z,16.17
2018-08-14T10:25:50.285Z,18.87
2018-08-14T10:28:21.915Z,14.27
2018-08-14T10:30:50.805Z,15.90
2018-08-14T10:33:19.409Z,13.90
2018-08-14T10:35:48.803Z,16.27
2018-08-14T10:38:17.558Z,17.87
2018-08-14T10:40:46.168Z,13.47
2018-08-14T10:43:15.035Z,13.37
2018-08-14T10:45:43.993Z,15.53
2018-08-14T10:48:12.658Z,13.30
2018-08-14T10:50:41.461Z,12.77
2018-08-14T10:53:10.050Z,13.70
2018-08-14T10:55:38.984Z,14.17
2018-08-14T10:58:08.215Z,13.17
2018-08-14T11:00:37.021Z,11.63
2018-08-14T11:03:06.016Z,15.23
2018-08-14T11:05:34.720Z,13.97
2018-08-14T11:08:03.494Z,13.60
2018-08-14T11:10:37.625Z,16.17
2018-08-14T11:13:06.323Z,12.40
2018-08-14T11:15:34.945Z,13.30
2018-08-14T11:18:03.549Z,13.30
2018-08-14T11:20:32.119Z,14.67
2018-08-14T11:23:01.492Z,13.33
2018-08-14T11:25:30.257Z,12.83
2018-08-14T11:27:59.259Z,12.20
2018-08-14T11:30:28.376Z,12.37
2018-08-14T11:32:57.073Z,12.10
2018-08-14T11:35:30.241Z,11.97
2018-08-14T11:37:59.032Z,10.23
2018-08-14T11:40:27.832Z,11.87
2018-08-14T11:42:56.619Z,12.07
2018-08-14T11:45:26.818Z,7.80
2018-08-14T11:47:55.404Z,13.05
2018-08-14T11:50:24.007Z,8.58
2018-08-14T11:52:53.942Z,8.85
2018-08-14T11:55:23.211Z,8.73
2018-08-14T11:57:52.718Z,8.60
2018-08-14T12:00:23.719Z,8.88
2018-08-14T12:02:53.785Z,7.35
2018-08-14T12:05:22.816Z,7.62
2018-08-14T12:07:51.756Z,8.45
2018-08-14T12:10:20.749Z,4.97
2018-08-14T12:12:49.697Z,4.35
2018-08-14T12:15:18.764Z,6.37
2018-08-14T12:17:48.616Z,4.77
2018-08-14T12:20:19.692Z,7.63
2018-08-14T12:22:48.447Z,3.97
2018-08-14T12:25:18.095Z,5.80
2018-08-14T12:27:47.570Z,5.17
2018-08-14T12:30:19.609Z,5.97
2018-08-14T12:32:48.907Z,4.77
2018-08-14T12:35:17.749Z,6.27
2018-08-14T12:37:46.632Z,7.47
2018-08-14T12:40:15.993Z,6.13
2018-08-14T12:42:44.591Z,4.13
2018-08-14T12:45:16.699Z,12.83
2018-08-14T12:47:45.846Z,5.07
2018-08-14T12:50:16.388Z,7.33
2018-08-14T12:52:45.313Z,3.63
2018-08-14T12:55:14.576Z,4.07
2018-08-14T12:57:43.616Z,3.30
2018-08-14T13:00:15.728Z,7.37
2018-08-14T13:02:44.749Z,5.63
2018-08-14T13:05:14.593Z,4.83
2018-08-14T13:07:43.581Z,6.05
2018-08-14T13:10:12.682Z,5.47
2018-08-14T13:12:42.146Z,3.70
2018-08-14T13:15:12.602Z,3.90
2018-08-14T13:17:42.576Z,4.10
2018-08-14T13:20:12.760Z,4.70
2018-08-14T13:25:14.865Z,9.53
2018-08-14T13:27:43.453Z,4.37
2018-08-14T13:30:13.614Z,6.42
2018-08-14T13:32:42.714Z,3.92
2018-08-14T13:35:11.789Z,4.40
2018-08-14T13:37:40.359Z,5.17
2018-08-14T13:40:10.253Z,2.50
2018-08-14T13:42:39.442Z,6.28
2018-08-14T13:45:09.699Z,3.52
2018-08-14T13:47:38.785Z,4.35
2018-08-14T13:50:08.990Z,6.50
2018-08-14T13:52:38.365Z,4.22
2018-08-14T13:55:16.643Z,4.30
2018-08-14T13:57:45.910Z,4.75
2018-08-14T14:00:18.577Z,3.35
2018-08-14T14:02:47.496Z,5.05
2018-08-14T14:05:16.212Z,7.90
2018-08-14T14:07:44.925Z,4.55
2018-08-14T14:10:15.317Z,2.37
2018-08-14T14:12:44.150Z,4.50
2018-08-14T14:15:17.954Z,5.15
2018-08-14T14:17:48.066Z,5.00
2018-08-14T14:20:18.501Z,8.98
2018-08-14T14:22:47.342Z,4.03
2018-08-14T14:25:16.404Z,8.38
2018-08-14T14:27:45.104Z,3.98
2018-08-14T14:30:14.918Z,4.53
2018-08-14T14:32:44.386Z,4.03
2018-08-14T14:35:13.554Z,3.98
2018-08-14T14:37:42.792Z,3.83
2018-08-14T14:40:17.284Z,5.20
2018-08-14T14:42:46.221Z,4.28
2018-08-14T14:45:15.540Z,5.05
2018-08-14T14:47:45.209Z,4.78
2018-08-14T14:50:14.144Z,5.37
2018-08-14T14:52:43.782Z,4.17
2018-08-14T14:55:14.911Z,4.22
2018-08-14T14:57:44.093Z,5.83
2018-08-14T15:00:19.129Z,3.25
2018-08-14T15:02:49.219Z,3.37
2018-08-14T15:05:18.331Z,8.65
2018-08-14T15:07:48.204Z,6.83
2018-08-14T15:10:16.999Z,5.15
2018-08-14T15:12:45.853Z,5.10
2018-08-14T15:15:14.954Z,4.78
2018-08-14T15:17:44.426Z,3.92
2018-08-14T15:20:16.735Z,5.17
2018-08-14T15:22:46.357Z,4.53
2018-08-14T15:25:16.606Z,3.67
2018-08-14T15:29:04.890Z,4.85
2018-08-14T15:31:35.080Z,3.93
2018-08-14T15:34:04.520Z,5.87
2018-08-14T15:36:34.335Z,3.30
2018-08-14T15:39:05.087Z,2.70
2018-08-14T15:41:33.650Z,4.03
2018-08-14T15:44:02.694Z,4.15
2018-08-14T15:46:31.247Z,4.58
2018-08-14T15:49:00.291Z,3.35
2018-08-14T15:51:29.194Z,3.25
2018-08-14T15:53:58.286Z,5.10
2018-08-14T15:56:27.164Z,4.90
2018-08-14T15:58:55.929Z,4.85
2018-08-14T16:01:24.662Z,7.50
2018-08-14T16:03:53.915Z,5.90
2018-08-14T16:06:23.078Z,4.58
2018-08-14T16:08:51.942Z,8.48
2018-08-14T16:11:20.713Z,2.20
2018-08-14T16:13:49.681Z,3.40
2018-08-14T16:16:18.581Z,3.92
2018-08-14T16:18:47.582Z,5.40
2018-08-14T16:21:16.402Z,3.40
2018-08-14T16:23:45.288Z,2.60
2018-08-14T16:26:14.080Z,3.90
2018-08-14T16:28:42.734Z,4.72
2018-08-14T16:31:11.761Z,4.03
2018-08-14T16:33:40.549Z,2.22
2018-08-14T16:36:09.644Z,1.98
2018-08-14T16:38:38.670Z,5.40
2018-08-14T16:41:07.541Z,3.05
2018-08-14T16:43:36.511Z,2.75
2018-08-14T16:46:05.191Z,6.30
2018-08-14T16:48:34.125Z,2.55
2018-08-14T16:51:03.008Z,6.47
2018-08-14T16:53:31.776Z,4.10
2018-08-14T16:56:00.723Z,2.67
2018-08-14T16:58:29.541Z,4.05
2018-08-14T17:00:58.235Z,2.35
2018-08-14T17:03:27.213Z,3.67
2018-08-14T17:05:57.947Z,5.90
2018-08-14T17:08:27.630Z,4.55
2018-08-14T17:10:57.038Z,4.53
2018-08-14T17:13:26.146Z,3.17
2018-08-14T17:15:55.091Z,3.65
2018-08-14T17:18:24.112Z,5.35
2018-08-14T17:20:51.706Z,5.70
2018-08-14T17:23:20.710Z,3.20
2018-08-14T17:25:50.333Z,3.23
2018-08-14T17:28:19.342Z,3.03
2018-08-14T17:30:48.470Z,1.90
2018-08-14T17:33:17.266Z,4.33
2018-08-14T17:35:46.236Z,2.73
2018-08-14T17:38:15.023Z,2.80
2018-08-14T17:40:43.800Z,4.23
2018-08-14T17:43:13.063Z,3.43
2018-08-14T17:45:42.168Z,7.67
2018-08-14T17:48:11.452Z,2.63
2018-08-14T17:50:40.283Z,4.60
2018-08-14T17:53:09.078Z,2.83
2018-08-14T17:55:38.000Z,2.00
2018-08-14T17:58:07.224Z,4.13
2018-08-14T18:00:36.224Z,3.30
2018-08-14T18:03:10.047Z,3.97
2018-08-14T18:05:39.080Z,3.00
2018-08-14T18:08:08.847Z,1.83
2018-08-14T18:10:37.801Z,1.67
2018-08-14T18:13:06.943Z,3.67
2018-08-14T18:15:35.989Z,3.73
2018-08-14T18:18:05.044Z,1.67
2018-08-14T18:20:34.664Z,6.67
2018-08-14T18:23:03.466Z,3.07
2018-08-14T18:25:32.530Z,3.03
2018-08-14T18:28:01.619Z,3.70
2018-08-14T18:30:30.556Z,4.50
2018-08-14T18:32:59.451Z,1.97
2018-08-14T18:35:28.125Z,2.80
2018-08-14T18:37:57.120Z,3.07
2018-08-14T18:40:26.032Z,5.20
2018-08-14T18:42:54.899Z,2.20
2018-08-14T18:45:23.985Z,4.03
2018-08-14T18:47:53.170Z,2.20
2018-08-14T18:50:22.028Z,3.90
2018-08-14T18:52:51.101Z,5.10
2018-08-14T18:55:20.413Z,1.47
2018-08-14T18:57:50.107Z,5.17
2018-08-14T19:00:21.180Z,4.67
2018-08-14T19:02:51.423Z,5.53
2018-08-14T19:05:20.724Z,2.73
2018-08-14T19:07:49.848Z,2.80
2018-08-14T19:10:20.129Z,2.37
2018-08-14T19:12:50.023Z,3.73
2018-08-14T19:15:24.307Z,5.73
2018-08-14T19:17:53.285Z,3.67
2018-08-14T19:20:22.327Z,3.80
2018-08-14T19:22:51.193Z,3.83
2018-08-14T19:25:19.950Z,3.23
2018-08-14T19:27:48.642Z,2.80
2018-08-14T19:30:17.575Z,4.00
2018-08-14T19:32:46.473Z,3.20
2018-08-14T19:35:16.685Z,5.87
2018-08-14T19:37:45.737Z,2.37
2018-08-14T19:40:18.673Z,3.27
2018-08-14T19:42:48.498Z,2.03
2018-08-14T19:45:17.588Z,2.63
2018-08-14T19:47:46.898Z,3.03
2018-08-14T19:50:17.364Z,4.33
2018-08-14T19:52:46.307Z,5.53
2018-08-14T19:55:19.761Z,5.23
2018-08-14T19:57:49.963Z,3.53
2018-08-14T20:00:29.131Z,6.27
2018-08-14T20:02:58.622Z,3.53
2018-08-14T20:05:27.785Z,3.63
2018-08-14T20:07:56.778Z,4.07
2018-08-14T20:10:25.584Z,6.97
2018-08-14T20:12:54.507Z,3.13
2018-08-14T20:15:28.463Z,6.80
2018-08-14T20:17:57.294Z,3.37
2018-08-14T20:20:26.399Z,3.47
2018-08-14T20:22:55.223Z,4.93
2018-08-14T20:25:24.437Z,4.20
2018-08-14T20:27:53.331Z,3.53
2018-08-14T20:30:22.252Z,3.50
2018-08-14T20:32:51.161Z,6.73
2018-08-14T20:35:20.295Z,3.40
2018-08-14T20:37:49.358Z,1.87
2018-08-14T20:40:21.674Z,3.17
2018-08-14T20:42:50.311Z,3.23
2018-08-14T20:45:19.502Z,2.00
2018-08-14T20:47:48.401Z,3.33
2018-08-14T20:50:18.591Z,6.13
2018-08-14T20:52:47.810Z,2.90
2018-08-14T20:55:18.048Z,2.60
2018-08-14T20:57:47.327Z,3.10
2018-08-14T21:00:21.133Z,2.20
2018-08-14T21:02:50.998Z,2.70
2018-08-14T21:05:20.840Z,5.70
2018-08-14T21:07:49.942Z,4.77
2018-08-14T21:10:19.240Z,3.33
2018-08-14T21:12:48.456Z,4.43
2018-08-14T21:15:22.600Z,3.50
2018-08-14T21:17:51.650Z,6.07
2018-08-14T21:20:20.875Z,5.13
2018-08-14T21:22:49.830Z,4.63
2018-08-14T21:25:18.925Z,5.73
2018-08-14T21:27:47.575Z,4.40
2018-08-14T21:30:17.468Z,2.50
2018-08-14T21:32:46.081Z,3.80
2018-08-14T21:35:17.398Z,4.70
2018-08-14T21:37:46.692Z,4.37
2018-08-14T21:40:17.142Z,7.87
2018-08-14T21:42:48.409Z,3.43
2018-08-14T21:45:18.517Z,2.47
2018-08-14T21:47:47.179Z,3.50
2018-08-14T21:50:15.802Z,3.43
2018-08-14T21:52:44.721Z,4.80
2018-08-14T21:55:14.268Z,5.13
2018-08-14T21:57:43.696Z,3.60
2018-08-14T22:00:15.886Z,4.63
2018-08-14T22:02:44.930Z,3.80
2018-08-14T22:05:14.099Z,5.47
2018-08-14T22:07:43.513Z,6.27
2018-08-14T22:10:12.499Z,5.03
2018-08-14T22:12:41.302Z,3.90
2018-08-14T22:15:10.278Z,5.73
2018-08-14T22:17:38.947Z,4.30
2018-08-14T22:20:09.914Z,5.03
2018-08-14T22:22:39.134Z,6.27
2018-08-14T22:25:07.985Z,4.10
2018-08-14T22:27:36.957Z,3.73
2018-08-14T22:30:08.442Z,5.43
2018-08-14T22:32:37.112Z,3.93
2018-08-14T22:35:06.440Z,5.70
2018-08-14T22:37:35.115Z,5.40
2018-08-14T22:40:04.091Z,3.43
2018-08-14T22:42:32.650Z,6.13
2018-08-14T22:45:01.364Z,3.20
2018-08-14T22:47:29.889Z,5.53
2018-08-14T22:49:58.660Z,3.40
2018-08-14T22:52:27.323Z,6.13
2018-08-14T22:54:56.139Z,3.67
2018-08-14T22:57:24.714Z,6.00
2018-08-14T22:59:53.254Z,3.90
2018-08-14T23:02:21.878Z,4.37
2018-08-14T23:04:50.818Z,4.30
2018-08-14T23:07:19.631Z,4.50
2018-08-14T23:09:48.626Z,9.53
2018-08-14T23:12:17.495Z,4.27
2018-08-14T23:14:46.114Z,5.03
2018-08-14T23:17:14.729Z,7.70
2018-08-14T23:19:43.719Z,3.97
2018-08-14T23:22:12.675Z,6.90
2018-08-14T23:24:41.459Z,3.57
2018-08-14T23:27:10.051Z,7.60
2018-08-14T23:29:38.761Z,6.77
2018-08-14T23:32:07.703Z,6.37
2018-08-14T23:34:36.748Z,4.93
2018-08-14T23:37:05.816Z,4.80
2018-08-14T23:39:34.315Z,7.03
2018-08-14T23:42:03.034Z,5.97
2018-08-14T23:44:31.811Z,9.47
2018-08-14T23:47:00.602Z,5.47
2018-08-14T23:49:29.300Z,7.23
2018-08-14T23:51:58.489Z,6.80
2018-08-14T23:54:27.102Z,5.83
2018-08-14T23:56:55.944Z,4.67
2018-08-14T23:59:24.849Z,4.60
